sensor_id;sensor_type;location;lat;lon;timestamp;pressure;altitude;pressure_sealevel;temperature;humidity
64460;BME280;50828;53.756;21.140;2023-03-13T00:00:28;99242.09;;;-3.14;61.92
64460;BME280;50828;53.756;21.140;2023-03-13T00:05:38;99228.13;;;-3.21;62.26
64460;BME280;50828;53.756;21.140;2023-03-13T00:10:46;99228.13;;;-3.26;62.50
64460;BME280;50828;53.756;21.140;2023-03-13T00:16:03;99227.10;;;-3.31;62.64
64460;BME280;50828;53.756;21.140;2023-03-13T00:21:12;99225.86;;;-3.35;62.87
64460;BME280;50828;53.756;21.140;2023-03-13T00:26:21;99229.31;;;-3.36;63.29
64460;BME280;50828;53.756;21.140;2023-03-13T00:31:31;99231.89;;;-3.34;63.24
64460;BME280;50828;53.756;21.140;2023-03-13T00:36:39;99222.11;;;-3.20;63.59
64460;BME280;50828;53.756;21.140;2023-03-13T00:41:48;99215.91;;;-2.95;63.82
64460;BME280;50828;53.756;21.140;2023-03-13T00:46:56;99212.98;;;-2.80;63.65
64460;BME280;50828;53.756;21.140;2023-03-13T00:52:05;99194.70;;;-2.71;63.41
64460;BME280;50828;53.756;21.140;2023-03-13T00:57:13;99177.98;;;-2.65;63.37
64460;BME280;50828;53.756;21.140;2023-03-13T01:02:21;99162.13;;;-2.63;63.46
64460;BME280;50828;53.756;21.140;2023-03-13T01:07:33;99157.46;;;-2.62;63.29
64460;BME280;50828;53.756;21.140;2023-03-13T01:12:41;99152.47;;;-2.64;63.15
64460;BME280;50828;53.756;21.140;2023-03-13T01:17:50;99158.33;;;-2.68;63.38
64460;BME280;50828;53.756;21.140;2023-03-13T01:22:57;99145.92;;;-2.72;63.37
64460;BME280;50828;53.756;21.140;2023-03-13T01:28:06;99135.42;;;-2.74;63.60
64460;BME280;50828;53.756;21.140;2023-03-13T01:33:13;99128.36;;;-2.77;63.85
64460;BME280;50828;53.756;21.140;2023-03-13T01:38:21;99129.92;;;-2.80;63.83
64460;BME280;50828;53.756;21.140;2023-03-13T01:43:31;99129.41;;;-2.84;63.78
64460;BME280;50828;53.756;21.140;2023-03-13T01:48:44;99125.26;;;-2.77;64.02
64460;BME280;50828;53.756;21.140;2023-03-13T01:53:58;99108.16;;;-2.63;64.17
64460;BME280;50828;53.756;21.140;2023-03-13T01:59:11;99088.50;;;-2.57;63.80
64460;BME280;50828;53.756;21.140;2023-03-13T02:04:21;99084.52;;;-2.56;63.61
64460;BME280;50828;53.756;21.140;2023-03-13T02:09:32;99087.64;;;-2.59;63.65
64460;BME280;50828;53.756;21.140;2023-03-13T02:14:43;99083.16;;;-2.62;63.90
64460;BME280;50828;53.756;21.140;2023-03-13T02:19:54;99084.56;;;-2.67;63.96
64460;BME280;50828;53.756;21.140;2023-03-13T02:25:08;99095.43;;;-2.71;64.14
64460;BME280;50828;53.756;21.140;2023-03-13T02:30:19;99097.52;;;-2.77;63.98
64460;BME280;50828;53.756;21.140;2023-03-13T02:35:28;99110.45;;;-2.84;63.91
64460;BME280;50828;53.756;21.140;2023-03-13T02:40:41;99104.79;;;-2.91;64.08
64460;BME280;50828;53.756;21.140;2023-03-13T02:46:04;99096.70;;;-2.98;64.26
64460;BME280;50828;53.756;21.140;2023-03-13T02:51:19;99090.67;;;-3.02;64.37
64460;BME280;50828;53.756;21.140;2023-03-13T02:56:32;99081.86;;;-2.96;64.45
64460;BME280;50828;53.756;21.140;2023-03-13T03:01:41;99074.94;;;-2.82;64.59
64460;BME280;50828;53.756;21.140;2023-03-13T03:06:49;99078.21;;;-2.74;64.27
64460;BME280;50828;53.756;21.140;2023-03-13T03:11:57;99071.48;;;-2.73;64.22
64460;BME280;50828;53.756;21.140;2023-03-13T03:17:05;99063.90;;;-2.75;64.31
64460;BME280;50828;53.756;21.140;2023-03-13T03:22:13;99054.95;;;-2.79;64.62
64460;BME280;50828;53.756;21.140;2023-03-13T03:27:21;99063.92;;;-2.82;64.80
64460;BME280;50828;53.756;21.140;2023-03-13T03:32:31;99068.76;;;-2.86;64.74
64460;BME280;50828;53.756;21.140;2023-03-13T03:37:39;99068.23;;;-2.89;65.15
64460;BME280;50828;53.756;21.140;2023-03-13T03:42:47;99082.21;;;-2.90;65.10
64460;BME280;50828;53.756;21.140;2023-03-13T03:47:56;99086.88;;;-2.91;65.20
64460;BME280;50828;53.756;21.140;2023-03-13T03:53:08;99086.48;;;-2.80;65.13
64460;BME280;50828;53.756;21.140;2023-03-13T03:58:19;99086.77;;;-2.62;65.32
64460;BME280;50828;53.756;21.140;2023-03-13T04:03:38;99092.60;;;-2.47;65.21
64460;BME280;50828;53.756;21.140;2023-03-13T04:08:47;99093.41;;;-2.37;65.41
64460;BME280;50828;53.756;21.140;2023-03-13T04:13:58;99082.68;;;-2.29;65.67
64460;BME280;50828;53.756;21.140;2023-03-13T04:19:06;99066.95;;;-2.22;65.68
64460;BME280;50828;53.756;21.140;2023-03-13T04:24:13;99059.50;;;-2.16;65.83
64460;BME280;50828;53.756;21.140;2023-03-13T04:29:22;99056.70;;;-2.08;65.90
64460;BME280;50828;53.756;21.140;2023-03-13T04:34:47;99053.52;;;-1.95;65.64
64460;BME280;50828;53.756;21.140;2023-03-13T04:40:08;99055.10;;;-1.75;65.70
64460;BME280;50828;53.756;21.140;2023-03-13T04:45:34;99041.70;;;-1.60;65.67
64460;BME280;50828;53.756;21.140;2023-03-13T04:51:00;99039.19;;;-1.50;65.77
64460;BME280;50828;53.756;21.140;2023-03-13T04:56:30;99027.57;;;-1.44;65.88
64460;BME280;50828;53.756;21.140;2023-03-13T05:02:24;99013.90;;;-1.41;66.21
64460;BME280;50828;53.756;21.140;2023-03-13T05:07:52;99002.65;;;-1.39;66.32
64460;BME280;50828;53.756;21.140;2023-03-13T05:13:35;98989.31;;;-1.35;66.17
64460;BME280;50828;53.756;21.140;2023-03-13T05:18:54;98984.42;;;-1.30;66.25
64460;BME280;50828;53.756;21.140;2023-03-13T05:24:38;98987.13;;;-1.23;66.33
64460;BME280;50828;53.756;21.140;2023-03-13T05:30:06;98982.20;;;-1.16;66.28
64460;BME280;50828;53.756;21.140;2023-03-13T05:35:32;98971.59;;;-1.08;66.27
64460;BME280;50828;53.756;21.140;2023-03-13T05:40:59;98962.51;;;-1.01;66.28
64460;BME280;50828;53.756;21.140;2023-03-13T05:46:25;98957.92;;;-0.92;66.25
64460;BME280;50828;53.756;21.140;2023-03-13T05:51:45;98947.80;;;-0.85;66.32
64460;BME280;50828;53.756;21.140;2023-03-13T05:57:13;98946.84;;;-0.77;66.42
64460;BME280;50828;53.756;21.140;2023-03-13T06:02:40;98946.23;;;-0.70;66.64
64460;BME280;50828;53.756;21.140;2023-03-13T06:07:54;98933.89;;;-0.65;66.72
64460;BME280;50828;53.756;21.140;2023-03-13T06:13:04;98929.83;;;-0.60;66.63
64460;BME280;50828;53.756;21.140;2023-03-13T06:18:30;98922.12;;;-0.52;66.94
64460;BME280;50828;53.756;21.140;2023-03-13T06:23:39;98905.25;;;-0.46;67.16
64460;BME280;50828;53.756;21.140;2023-03-13T06:28:49;98902.22;;;-0.40;67.36
64460;BME280;50828;53.756;21.140;2023-03-13T06:33:58;98907.66;;;-0.33;67.45
64460;BME280;50828;53.756;21.140;2023-03-13T06:39:05;98901.84;;;-0.26;67.77
64460;BME280;50828;53.756;21.140;2023-03-13T06:44:13;98905.70;;;-0.19;67.84
64460;BME280;50828;53.756;21.140;2023-03-13T06:49:22;98892.77;;;-0.11;68.12
64460;BME280;50828;53.756;21.140;2023-03-13T06:54:30;98881.05;;;-0.04;68.18
64460;BME280;50828;53.756;21.140;2023-03-13T06:59:39;98873.85;;;0.03;68.54
64460;BME280;50828;53.756;21.140;2023-03-13T07:04:48;98870.43;;;0.10;68.55
64460;BME280;50828;53.756;21.140;2023-03-13T07:09:56;98877.67;;;0.22;68.73
64460;BME280;50828;53.756;21.140;2023-03-13T07:15:07;98866.41;;;0.32;68.77
64460;BME280;50828;53.756;21.140;2023-03-13T07:20:15;98861.87;;;0.43;68.79
64460;BME280;50828;53.756;21.140;2023-03-13T07:25:24;98854.91;;;0.53;68.90
64460;BME280;50828;53.756;21.140;2023-03-13T07:30:33;98844.67;;;0.63;69.06
64460;BME280;50828;53.756;21.140;2023-03-13T07:35:44;98838.70;;;0.76;68.84
64460;BME280;50828;53.756;21.140;2023-03-13T07:40:56;98836.98;;;0.91;68.73
64460;BME280;50828;53.756;21.140;2023-03-13T07:46:06;98832.15;;;1.06;68.83
64460;BME280;50828;53.756;21.140;2023-03-13T07:51:17;98826.97;;;1.21;68.84
64460;BME280;50828;53.756;21.140;2023-03-13T07:56:35;98816.56;;;1.36;68.84
64460;BME280;50828;53.756;21.140;2023-03-13T08:01:43;98810.15;;;1.50;68.68
64460;BME280;50828;53.756;21.140;2023-03-13T08:06:52;98805.13;;;1.64;68.72
64460;BME280;50828;53.756;21.140;2023-03-13T08:12:01;98805.49;;;1.77;68.66
64460;BME280;50828;53.756;21.140;2023-03-13T08:17:09;98808.27;;;1.91;68.65
64460;BME280;50828;53.756;21.140;2023-03-13T08:22:18;98803.40;;;2.05;68.42
64460;BME280;50828;53.756;21.140;2023-03-13T08:27:26;98803.10;;;2.16;68.47
64460;BME280;50828;53.756;21.140;2023-03-13T08:32:36;98795.48;;;2.28;68.47
64460;BME280;50828;53.756;21.140;2023-03-13T08:37:45;98785.65;;;2.38;68.27
64460;BME280;50828;53.756;21.140;2023-03-13T08:42:54;98776.71;;;2.48;68.38
64460;BME280;50828;53.756;21.140;2023-03-13T08:48:01;98766.02;;;2.56;68.20
64460;BME280;50828;53.756;21.140;2023-03-13T08:53:10;98758.52;;;2.64;68.25
64460;BME280;50828;53.756;21.140;2023-03-13T08:58:18;98754.52;;;2.69;68.37
64460;BME280;50828;53.756;21.140;2023-03-13T09:03:27;98758.67;;;2.76;68.37
64460;BME280;50828;53.756;21.140;2023-03-13T09:08:36;98753.00;;;2.80;68.32
64460;BME280;50828;53.756;21.140;2023-03-13T09:13:46;98757.83;;;2.81;68.37
64460;BME280;50828;53.756;21.140;2023-03-13T09:18:56;98752.77;;;2.81;68.60
64460;BME280;50828;53.756;21.140;2023-03-13T09:24:05;98739.25;;;2.80;68.61
64460;BME280;50828;53.756;21.140;2023-03-13T09:29:12;98725.02;;;2.79;68.75
64460;BME280;50828;53.756;21.140;2023-03-13T09:34:21;98727.30;;;2.78;68.97
64460;BME280;50828;53.756;21.140;2023-03-13T09:39:31;98715.48;;;2.78;69.22
64460;BME280;50828;53.756;21.140;2023-03-13T09:44:41;98713.08;;;2.78;69.35
64460;BME280;50828;53.756;21.140;2023-03-13T09:49:50;98705.60;;;2.77;69.46
64460;BME280;50828;53.756;21.140;2023-03-13T09:55:04;98700.60;;;2.75;70.09
64460;BME280;50828;53.756;21.140;2023-03-13T10:00:25;98702.19;;;2.74;70.12
64460;BME280;50828;53.756;21.140;2023-03-13T10:05:35;98690.50;;;2.76;70.20
64460;BME280;50828;53.756;21.140;2023-03-13T10:10:47;98681.81;;;2.76;70.43
64460;BME280;50828;53.756;21.140;2023-03-13T10:15:59;98676.73;;;2.78;70.48
64460;BME280;50828;53.756;21.140;2023-03-13T10:21:18;98679.27;;;2.80;70.74
64460;BME280;50828;53.756;21.140;2023-03-13T10:26:29;98670.67;;;2.82;70.94
64460;BME280;50828;53.756;21.140;2023-03-13T10:31:38;98645.94;;;2.78;70.96
64460;BME280;50828;53.756;21.140;2023-03-13T10:36:47;98650.02;;;2.87;70.87
64460;BME280;50828;53.756;21.140;2023-03-13T10:42:08;98644.03;;;2.89;70.90
64460;BME280;50828;53.756;21.140;2023-03-13T10:47:16;98635.26;;;2.91;71.27
64460;BME280;50828;53.756;21.140;2023-03-13T10:52:40;98632.55;;;2.94;71.24
64460;BME280;50828;53.756;21.140;2023-03-13T10:57:52;98625.56;;;2.95;71.52
64460;BME280;50828;53.756;21.140;2023-03-13T11:03:02;98616.77;;;2.98;71.79
64460;BME280;50828;53.756;21.140;2023-03-13T11:08:32;98603.27;;;3.01;71.45
64460;BME280;50828;53.756;21.140;2023-03-13T11:13:42;98594.94;;;3.06;71.68
64460;BME280;50828;53.756;21.140;2023-03-13T11:19:07;98580.70;;;3.10;71.79
64460;BME280;50828;53.756;21.140;2023-03-13T11:24:24;98568.32;;;3.17;71.81
64460;BME280;50828;53.756;21.140;2023-03-13T11:29:41;98554.93;;;3.21;71.76
64460;BME280;50828;53.756;21.140;2023-03-13T11:34:56;98544.17;;;3.25;71.87
64460;BME280;50828;53.756;21.140;2023-03-13T11:40:14;98532.72;;;3.29;71.81
64460;BME280;50828;53.756;21.140;2023-03-13T11:45:52;98523.88;;;3.33;71.94
64460;BME280;50828;53.756;21.140;2023-03-13T11:51:08;98517.30;;;3.37;71.83
64460;BME280;50828;53.756;21.140;2023-03-13T11:56:29;98508.74;;;3.43;72.00
64460;BME280;50828;53.756;21.140;2023-03-13T12:01:48;98493.42;;;3.47;71.79
64460;BME280;50828;53.756;21.140;2023-03-13T12:07:02;98476.15;;;3.54;71.70
64460;BME280;50828;53.756;21.140;2023-03-13T12:12:19;98469.38;;;3.58;71.99
64460;BME280;50828;53.756;21.140;2023-03-13T12:17:34;98457.02;;;3.62;71.96
64460;BME280;50828;53.756;21.140;2023-03-13T12:22:47;98447.96;;;3.66;71.91
64460;BME280;50828;53.756;21.140;2023-03-13T12:28:08;98439.59;;;3.71;72.13
64460;BME280;50828;53.756;21.140;2023-03-13T12:33:28;98430.67;;;3.77;72.30
64460;BME280;50828;53.756;21.140;2023-03-13T12:38:41;98423.66;;;3.82;72.35
64460;BME280;50828;53.756;21.140;2023-03-13T12:43:53;98409.34;;;3.88;72.42
64460;BME280;50828;53.756;21.140;2023-03-13T13:01:03;98373.27;;;4.10;72.89
64460;BME280;50828;53.756;21.140;2023-03-13T13:06:14;98362.20;;;4.16;72.70
64460;BME280;50828;53.756;21.140;2023-03-13T13:11:46;98347.52;;;4.22;72.72
64460;BME280;50828;53.756;21.140;2023-03-13T13:16:59;98341.27;;;4.29;73.04
64460;BME280;50828;53.756;21.140;2023-03-13T13:22:48;98331.05;;;4.36;73.19
64460;BME280;50828;53.756;21.140;2023-03-13T13:28:20;98325.02;;;4.42;73.33
64460;BME280;50828;53.756;21.140;2023-03-13T13:33:39;98312.40;;;4.48;73.55
64460;BME280;50828;53.756;21.140;2023-03-13T13:38:48;98302.25;;;4.53;73.60
64460;BME280;50828;53.756;21.140;2023-03-13T13:49:55;98287.80;;;4.64;74.04
64460;BME280;50828;53.756;21.140;2023-03-13T13:55:02;98275.38;;;4.69;74.07
64460;BME280;50828;53.756;21.140;2023-03-13T14:00:19;98261.85;;;4.75;74.57
64460;BME280;50828;53.756;21.140;2023-03-13T14:05:31;98240.94;;;4.82;73.87
64460;BME280;50828;53.756;21.140;2023-03-13T14:10:41;98222.33;;;4.99;73.41
64460;BME280;50828;53.756;21.140;2023-03-13T14:15:50;98215.29;;;5.23;73.45
64460;BME280;50828;53.756;21.140;2023-03-13T14:21:00;98197.64;;;5.48;73.61
64460;BME280;50828;53.756;21.140;2023-03-13T14:26:14;98182.47;;;5.72;73.52
64460;BME280;50828;53.756;21.140;2023-03-13T14:31:28;98172.31;;;5.89;73.32
64460;BME280;50828;53.756;21.140;2023-03-13T14:36:49;98162.18;;;6.00;72.89
64460;BME280;50828;53.756;21.140;2023-03-13T14:42:11;98153.60;;;6.17;73.02
64460;BME280;50828;53.756;21.140;2023-03-13T14:47:23;98142.07;;;6.33;72.99
64460;BME280;50828;53.756;21.140;2023-03-13T14:52:32;98133.77;;;6.41;73.17
64460;BME280;50828;53.756;21.140;2023-03-13T14:57:56;98117.73;;;6.43;72.65
64460;BME280;50828;53.756;21.140;2023-03-13T15:03:22;98113.91;;;6.53;73.10
64460;BME280;50828;53.756;21.140;2023-03-13T15:08:35;98107.23;;;6.66;73.04
64460;BME280;50828;53.756;21.140;2023-03-13T15:13:44;98097.45;;;6.75;73.15
64460;BME280;50828;53.756;21.140;2023-03-13T15:18:53;98078.64;;;6.76;72.98
64460;BME280;50828;53.756;21.140;2023-03-13T15:24:09;98075.12;;;6.83;73.10
64460;BME280;50828;53.756;21.140;2023-03-13T15:29:18;98068.81;;;6.89;73.37
64460;BME280;50828;53.756;21.140;2023-03-13T15:34:26;98065.53;;;6.94;73.49
64460;BME280;50828;53.756;21.140;2023-03-13T15:39:35;98059.99;;;7.00;73.44
64460;BME280;50828;53.756;21.140;2023-03-13T15:44:44;98054.02;;;7.09;73.43
64460;BME280;50828;53.756;21.140;2023-03-13T15:49:51;98049.73;;;7.13;73.81
64460;BME280;50828;53.756;21.140;2023-03-13T15:55:00;98044.99;;;7.13;73.63
64460;BME280;50828;53.756;21.140;2023-03-13T16:00:15;98040.73;;;7.21;73.82
64460;BME280;50828;53.756;21.140;2023-03-13T16:05:25;98036.25;;;7.31;73.75
64460;BME280;50828;53.756;21.140;2023-03-13T16:10:35;98040.65;;;7.34;74.01
64460;BME280;50828;53.756;21.140;2023-03-13T16:15:44;98039.48;;;7.33;73.94
64460;BME280;50828;53.756;21.140;2023-03-13T16:20:52;98035.09;;;7.39;73.71
64460;BME280;50828;53.756;21.140;2023-03-13T16:26:00;98027.95;;;7.47;74.17
64460;BME280;50828;53.756;21.140;2023-03-13T16:31:09;98029.95;;;7.48;74.46
64460;BME280;50828;53.756;21.140;2023-03-13T16:36:24;98034.33;;;7.46;74.43
64460;BME280;50828;53.756;21.140;2023-03-13T16:41:34;98039.84;;;7.50;74.19
64460;BME280;50828;53.756;21.140;2023-03-13T16:46:43;98045.19;;;7.58;74.42
64460;BME280;50828;53.756;21.140;2023-03-13T16:52:14;98043.00;;;7.59;74.32
64460;BME280;50828;53.756;21.140;2023-03-13T16:57:24;98051.30;;;7.66;74.36
64460;BME280;50828;53.756;21.140;2023-03-13T17:02:33;98052.94;;;7.77;74.52
64460;BME280;50828;53.756;21.140;2023-03-13T17:07:44;98056.91;;;7.78;74.49
64460;BME280;50828;53.756;21.140;2023-03-13T17:12:52;98062.77;;;7.77;74.40
64460;BME280;50828;53.756;21.140;2023-03-13T17:18:01;98066.53;;;7.81;74.41
64460;BME280;50828;53.756;21.140;2023-03-13T17:23:10;98064.92;;;7.90;74.55
64460;BME280;50828;53.756;21.140;2023-03-13T17:28:18;98067.59;;;7.92;74.46
64460;BME280;50828;53.756;21.140;2023-03-13T17:33:25;98071.69;;;7.91;74.71
64460;BME280;50828;53.756;21.140;2023-03-13T17:38:34;98063.63;;;7.97;74.61
64460;BME280;50828;53.756;21.140;2023-03-13T17:43:42;98066.04;;;8.06;74.63
64460;BME280;50828;53.756;21.140;2023-03-13T17:48:52;98066.10;;;8.08;74.46
64460;BME280;50828;53.756;21.140;2023-03-13T17:54:01;98064.42;;;8.06;74.48
64460;BME280;50828;53.756;21.140;2023-03-13T17:59:12;98067.20;;;8.10;74.49
64460;BME280;50828;53.756;21.140;2023-03-13T18:04:22;98072.13;;;8.15;74.70
64460;BME280;50828;53.756;21.140;2023-03-13T18:09:31;98081.31;;;8.19;74.66
64460;BME280;50828;53.756;21.140;2023-03-13T18:14:39;98077.31;;;8.25;74.56
64460;BME280;50828;53.756;21.140;2023-03-13T18:19:48;98075.31;;;8.29;74.88
64460;BME280;50828;53.756;21.140;2023-03-13T18:24:56;98076.56;;;8.34;74.69
64460;BME280;50828;53.756;21.140;2023-03-13T18:30:13;98075.91;;;8.38;74.45
64460;BME280;50828;53.756;21.140;2023-03-13T18:35:22;98070.68;;;8.44;74.68
64460;BME280;50828;53.756;21.140;2023-03-13T18:40:32;98073.99;;;8.50;74.66
64460;BME280;50828;53.756;21.140;2023-03-13T18:45:40;98071.71;;;8.55;74.60
64460;BME280;50828;53.756;21.140;2023-03-13T18:50:49;98072.98;;;8.60;74.71
64460;BME280;50828;53.756;21.140;2023-03-13T18:55:57;98079.16;;;8.65;74.57
64460;BME280;50828;53.756;21.140;2023-03-13T19:01:11;98082.58;;;8.70;74.77
64460;BME280;50828;53.756;21.140;2023-03-13T19:06:23;98079.66;;;8.74;74.80
64460;BME280;50828;53.756;21.140;2023-03-13T19:11:31;98075.01;;;8.78;74.63
64460;BME280;50828;53.756;21.140;2023-03-13T19:16:44;98076.89;;;8.81;74.76
64460;BME280;50828;53.756;21.140;2023-03-13T19:21:53;98089.81;;;8.85;74.76
64460;BME280;50828;53.756;21.140;2023-03-13T19:27:03;98096.40;;;8.89;74.93
64460;BME280;50828;53.756;21.140;2023-03-13T19:32:14;98086.59;;;8.94;74.64
64460;BME280;50828;53.756;21.140;2023-03-13T19:37:23;98081.41;;;8.98;75.01
64460;BME280;50828;53.756;21.140;2023-03-13T19:42:32;98074.83;;;9.02;74.79
64460;BME280;50828;53.756;21.140;2023-03-13T19:47:41;98061.79;;;9.03;74.84
64460;BME280;50828;53.756;21.140;2023-03-13T19:52:49;98060.52;;;9.11;74.91
64460;BME280;50828;53.756;21.140;2023-03-13T19:57:57;98052.08;;;9.14;74.90
64460;BME280;50828;53.756;21.140;2023-03-13T20:03:08;98043.74;;;9.18;74.84
64460;BME280;50828;53.756;21.140;2023-03-13T20:08:16;98044.83;;;9.20;74.79
64460;BME280;50828;53.756;21.140;2023-03-13T20:13:25;98051.52;;;9.23;74.40
64460;BME280;50828;53.756;21.140;2023-03-13T20:18:34;98050.29;;;9.23;74.35
64460;BME280;50828;53.756;21.140;2023-03-13T20:23:43;98044.06;;;9.18;74.29
64460;BME280;50828;53.756;21.140;2023-03-13T20:28:52;98039.99;;;9.11;74.60
64460;BME280;50828;53.756;21.140;2023-03-13T20:34:02;98043.60;;;9.10;74.59
64460;BME280;50828;53.756;21.140;2023-03-13T20:39:10;98052.73;;;9.12;74.36
64460;BME280;50828;53.756;21.140;2023-03-13T20:44:19;98059.52;;;9.08;74.33
64460;BME280;50828;53.756;21.140;2023-03-13T20:49:27;98059.92;;;8.99;74.25
64460;BME280;50828;53.756;21.140;2023-03-13T20:54:36;98060.40;;;8.97;74.32
64460;BME280;50828;53.756;21.140;2023-03-13T20:59:44;98051.38;;;8.98;74.34
64460;BME280;50828;53.756;21.140;2023-03-13T21:04:52;98045.11;;;8.95;74.19
64460;BME280;50828;53.756;21.140;2023-03-13T21:10:01;98035.68;;;8.92;74.35
64460;BME280;50828;53.756;21.140;2023-03-13T21:15:12;98035.44;;;8.98;74.57
64460;BME280;50828;53.756;21.140;2023-03-13T21:20:21;98036.08;;;9.04;74.32
64460;BME280;50828;53.756;21.140;2023-03-13T21:25:29;98032.04;;;9.01;74.21
64460;BME280;50828;53.756;21.140;2023-03-13T21:30:39;98016.23;;;8.96;74.10
64460;BME280;50828;53.756;21.140;2023-03-13T21:35:49;98004.84;;;8.96;73.88
64460;BME280;50828;53.756;21.140;2023-03-13T21:40:58;98014.15;;;8.98;73.95
64460;BME280;50828;53.756;21.140;2023-03-13T21:46:11;98004.82;;;8.96;73.88
64460;BME280;50828;53.756;21.140;2023-03-13T21:51:17;97998.35;;;8.91;73.96
64460;BME280;50828;53.756;21.140;2023-03-13T21:56:25;97998.95;;;8.92;73.79
64460;BME280;50828;53.756;21.140;2023-03-13T22:01:33;97994.23;;;8.94;73.67
64460;BME280;50828;53.756;21.140;2023-03-13T22:06:41;97976.70;;;8.91;73.85
64460;BME280;50828;53.756;21.140;2023-03-13T22:11:49;97959.05;;;8.85;73.90
64460;BME280;50828;53.756;21.140;2023-03-13T22:16:58;97958.42;;;8.87;73.90
64460;BME280;50828;53.756;21.140;2023-03-13T22:22:06;97958.70;;;8.88;73.57
64460;BME280;50828;53.756;21.140;2023-03-13T22:27:15;97968.17;;;8.82;73.73
64460;BME280;50828;53.756;21.140;2023-03-13T22:32:25;97984.77;;;8.78;73.69
64460;BME280;50828;53.756;21.140;2023-03-13T22:37:34;97967.58;;;8.76;73.69
64460;BME280;50828;53.756;21.140;2023-03-13T22:42:43;97956.87;;;8.73;73.51
64460;BME280;50828;53.756;21.140;2023-03-13T22:47:50;97961.73;;;8.71;73.54
64460;BME280;50828;53.756;21.140;2023-03-13T22:52:58;97965.16;;;8.70;73.71
64460;BME280;50828;53.756;21.140;2023-03-13T22:58:07;97954.06;;;8.68;73.54
64460;BME280;50828;53.756;21.140;2023-03-13T23:03:15;97956.98;;;8.66;73.48
64460;BME280;50828;53.756;21.140;2023-03-13T23:08:24;97962.83;;;8.65;73.56
64460;BME280;50828;53.756;21.140;2023-03-13T23:13:32;97962.67;;;8.64;73.27
64460;BME280;50828;53.756;21.140;2023-03-13T23:18:42;97948.77;;;8.62;73.36
64460;BME280;50828;53.756;21.140;2023-03-13T23:23:53;97930.80;;;8.61;73.26
64460;BME280;50828;53.756;21.140;2023-03-13T23:29:02;97914.94;;;8.60;73.52
64460;BME280;50828;53.756;21.140;2023-03-13T23:34:09;97914.11;;;8.59;73.51
64460;BME280;50828;53.756;21.140;2023-03-13T23:39:17;97909.66;;;8.60;73.64
64460;BME280;50828;53.756;21.140;2023-03-13T23:44:25;97890.08;;;8.61;73.55
64460;BME280;50828;53.756;21.140;2023-03-13T23:49:32;97889.77;;;8.63;73.45
64460;BME280;50828;53.756;21.140;2023-03-13T23:54:41;97884.35;;;8.66;73.42
64460;BME280;50828;53.756;21.140;2023-03-13T23:59:49;97883.95;;;8.69;73.64
